createdAt,value
2023-04-03T00:00:08.176Z,96771.78
2023-04-03T00:01:12.875Z,96767.56
2023-04-03T00:02:14.974Z,96765.84
2023-04-03T00:03:20.102Z,96763.28
2023-04-03T00:04:22.363Z,96771.78
2023-04-03T00:05:27.525Z,96770.09
2023-04-03T00:06:29.642Z,96762.41
2023-04-03T00:07:34.293Z,96769.19
2023-04-03T00:08:36.625Z,96758.94
2023-04-03T00:09:41.364Z,96768.34
2023-04-03T00:10:43.929Z,96759.84
2023-04-03T00:11:51.193Z,96759.00
2023-04-03T00:12:53.309Z,96756.41
2023-04-03T00:13:57.972Z,96757.22
2023-04-03T00:15:00.128Z,96755.59
2023-04-03T00:16:04.884Z,96751.31
2023-04-03T00:17:07.132Z,96755.56
2023-04-03T00:18:12.145Z,96758.97
2023-04-03T00:19:14.188Z,96757.31
2023-04-03T00:20:19.099Z,96760.66
2023-04-03T00:21:21.537Z,96756.38
2023-04-03T00:22:27.759Z,96757.25
2023-04-03T00:23:29.788Z,96759.84
2023-04-03T00:24:34.437Z,96753.88
2023-04-03T00:25:36.954Z,96760.69
2023-04-03T00:26:41.638Z,96753.91
2023-04-03T00:27:46.462Z,96759.03
2023-04-03T00:28:51.166Z,96754.75
2023-04-03T00:29:53.216Z,96761.59
2023-04-03T00:30:57.902Z,96764.16
2023-04-03T00:32:00.156Z,96760.72
2023-04-03T00:33:05.169Z,96762.44
2023-04-03T00:34:09.813Z,96756.44
2023-04-03T00:35:12.071Z,96761.56
2023-04-03T00:36:17.473Z,96762.44
2023-04-03T00:37:19.676Z,96766.69
2023-04-03T00:38:24.354Z,96761.56
2023-04-03T00:39:26.657Z,96755.59
2023-04-03T00:40:31.622Z,96757.31
2023-04-03T00:41:33.701Z,96762.44
2023-04-03T00:42:39.502Z,96753.91
2023-04-03T00:43:44.208Z,96760.69
2023-04-03T00:45:18.881Z,96759.84
2023-04-03T00:46:23.541Z,96764.13
2023-04-03T00:47:26.604Z,96764.09
2023-04-03T00:48:34.022Z,96754.72
2023-04-03T00:49:37.357Z,96759.84
2023-04-03T00:50:45.541Z,96756.38
2023-04-03T00:51:50.839Z,96755.56
2023-04-03T00:52:53.135Z,96767.47
2023-04-03T00:54:02.019Z,96757.22
2023-04-03T00:55:09.212Z,96759.75
2023-04-03T00:56:18.384Z,96759.75
2023-04-03T00:57:20.677Z,96766.59
2023-04-03T00:58:29.495Z,96764.03
2023-04-03T00:59:37.149Z,96758.94
2023-04-03T01:00:45.813Z,96757.22
2023-04-03T01:01:47.906Z,96756.38
2023-04-03T01:02:52.819Z,96759.75
2023-04-03T01:03:55.405Z,96756.38
2023-04-03T01:05:00.081Z,96753.78
2023-04-03T01:06:02.504Z,96752.16
2023-04-03T01:07:10.688Z,96756.38
2023-04-03T01:08:12.991Z,96754.66
2023-04-03T01:09:17.636Z,96755.56
2023-04-03T01:10:21.965Z,96757.25
2023-04-03T01:11:27.289Z,96757.28
2023-04-03T01:12:31.468Z,96757.25
2023-04-03T01:13:37.356Z,96757.22
2023-04-03T01:14:42.850Z,96755.53
2023-04-03T01:15:48.198Z,96758.13
2023-04-03T01:16:54.411Z,96757.31
2023-04-03T01:18:01.305Z,96764.13
2023-04-03T01:19:06.837Z,96761.53
2023-04-03T01:20:49.581Z,96761.53
2023-04-03T01:22:06.858Z,96765.78
2023-04-03T01:23:21.952Z,96769.19
2023-04-03T01:24:36.457Z,96765.75
2023-04-03T01:25:41.864Z,96767.44
2023-04-03T01:26:47.056Z,96764.88
2023-04-03T01:27:49.110Z,96762.34
2023-04-03T01:28:53.708Z,96764.09
2023-04-03T01:29:59.247Z,96764.91
2023-04-03T01:31:12.272Z,96765.78
2023-04-03T01:32:16.955Z,96764.09
2023-04-03T01:33:21.867Z,96758.97
2023-04-03T01:34:27.763Z,96762.34
2023-04-03T01:35:30.086Z,96757.22
2023-04-03T01:36:35.854Z,96763.16
2023-04-03T01:37:38.112Z,96766.59
2023-04-03T01:38:42.739Z,96765.78
2023-04-03T01:39:47.404Z,96764.09
2023-04-03T01:40:49.463Z,96761.53
2023-04-03T01:41:54.477Z,96761.53
2023-04-03T01:42:56.597Z,96761.53
2023-04-03T01:44:01.253Z,96760.69
2023-04-03T01:45:06.415Z,96769.25
2023-04-03T01:46:09.125Z,96760.72
2023-04-03T01:47:13.822Z,96760.69
2023-04-03T01:48:18.645Z,96770.06
2023-04-03T01:49:23.328Z,96767.53
2023-04-03T01:50:25.357Z,96765.78
2023-04-03T01:51:30.401Z,96760.66
2023-04-03T01:52:32.481Z,96760.66
2023-04-03T01:53:37.218Z,96762.38
2023-04-03T01:54:39.282Z,96762.38
2023-04-03T01:55:44.015Z,96760.66
2023-04-03T01:56:46.138Z,96757.28
2023-04-03T01:57:51.071Z,96765.78
2023-04-03T01:58:53.095Z,96759.81
2023-04-03T01:59:57.699Z,96762.41
2023-04-03T02:00:59.914Z,96763.16
2023-04-03T02:02:04.612Z,96765.78
2023-04-03T02:03:08.052Z,96770.03
2023-04-03T02:04:15.656Z,96757.28
2023-04-03T02:05:17.970Z,96764.09
2023-04-03T02:06:22.591Z,96764.94
2023-04-03T02:07:24.647Z,96758.16
2023-04-03T02:08:29.415Z,96760.66
2023-04-03T02:09:34.122Z,96765.81
2023-04-03T02:10:36.580Z,96768.41
2023-04-03T02:11:41.441Z,96774.34
2023-04-03T02:12:43.536Z,96772.66
2023-04-03T02:13:48.195Z,96773.53
2023-04-03T02:14:50.231Z,96773.50
2023-04-03T02:15:54.865Z,96771.78
2023-04-03T02:16:57.121Z,96769.25
2023-04-03T02:18:01.901Z,96767.56
2023-04-03T02:19:09.998Z,96772.66
2023-04-03T02:20:17.320Z,96766.69
2023-04-03T02:21:19.342Z,96766.66
2023-04-03T02:22:24.003Z,96764.91
2023-04-03T02:23:26.206Z,96765.75
2023-04-03T02:24:31.347Z,96768.34
2023-04-03T02:25:34.030Z,96766.63
2023-04-03T02:26:38.863Z,96768.31
2023-04-03T02:27:41.168Z,96767.50
2023-04-03T02:28:46.423Z,96772.56
2023-04-03T02:29:48.572Z,96774.28
2023-04-03T02:30:53.224Z,96773.44
2023-04-03T02:31:55.300Z,96770.88
2023-04-03T02:33:00.032Z,96765.78
2023-04-03T02:34:02.131Z,96774.34
2023-04-03T02:35:07.303Z,96777.75
2023-04-03T02:36:12.138Z,96762.44
2023-04-03T02:37:16.823Z,96774.34
2023-04-03T02:38:18.847Z,96776.91
2023-04-03T02:39:23.705Z,96778.63
2023-04-03T02:40:25.762Z,96774.41
2023-04-03T02:41:35.981Z,96776.06
2023-04-03T02:42:38.101Z,96773.50
2023-04-03T02:43:43.322Z,96773.50
2023-04-03T02:44:45.850Z,96770.94
2023-04-03T02:45:53.240Z,96776.03
2023-04-03T02:46:55.420Z,96772.66
2023-04-03T02:48:00.173Z,96776.03
2023-04-03T02:49:02.349Z,96771.75
2023-04-03T02:50:07.729Z,96770.91
2023-04-03T02:51:12.377Z,96771.78
2023-04-03T02:52:17.769Z,96779.41
2023-04-03T02:53:20.322Z,96776.81
2023-04-03T02:54:28.884Z,96767.44
2023-04-03T02:55:30.970Z,96776.84
2023-04-03T02:56:35.616Z,96769.22
2023-04-03T02:57:37.699Z,96777.75
2023-04-03T02:58:42.379Z,96781.13
2023-04-03T02:59:45.431Z,96769.19
2023-04-03T03:00:50.094Z,96767.50
2023-04-03T03:01:52.254Z,96766.59
2023-04-03T03:02:56.923Z,96767.50
2023-04-03T03:03:59.193Z,96770.03
2023-04-03T03:05:03.992Z,96774.31
2023-04-03T03:06:08.103Z,96770.91
2023-04-03T03:07:15.388Z,96768.38
2023-04-03T03:08:21.350Z,96767.53
2023-04-03T03:09:26.898Z,96776.03
2023-04-03T03:10:28.958Z,96774.34
2023-04-03T03:11:33.665Z,96770.94
2023-04-03T03:12:35.798Z,96774.38
2023-04-03T03:13:40.594Z,96770.94
2023-04-03T03:14:44.126Z,96775.19
2023-04-03T03:15:48.831Z,96774.34
2023-04-03T03:16:51.335Z,96770.94
2023-04-03T03:17:56.053Z,96777.75
2023-04-03T03:18:59.069Z,96772.59
2023-04-03T03:20:03.789Z,96767.53
2023-04-03T03:21:06.166Z,96769.22
2023-04-03T03:22:10.875Z,96775.22
2023-04-03T03:23:15.529Z,96774.38
2023-04-03T03:24:20.224Z,96776.06
2023-04-03T03:25:22.359Z,96776.06
2023-04-03T03:26:27.526Z,96778.63
2023-04-03T03:27:29.760Z,96771.81
2023-04-03T03:28:34.693Z,96772.69
2023-04-03T03:29:36.719Z,96773.53
2023-04-03T03:30:41.564Z,96769.28
2023-04-03T03:31:43.660Z,96768.44
2023-04-03T03:32:48.367Z,96773.53
2023-04-03T03:33:50.512Z,96765.81
2023-04-03T03:34:55.207Z,96769.22
2023-04-03T03:35:57.751Z,96765.81
2023-04-03T03:37:02.402Z,96775.19
2023-04-03T03:38:04.469Z,96775.22
2023-04-03T03:39:11.679Z,96767.56
2023-04-03T03:40:14.327Z,96769.25
2023-04-03T03:41:19.031Z,96764.97
2023-04-03T03:42:21.110Z,96762.44
2023-04-03T03:43:25.882Z,96759.06
2023-04-03T03:44:30.191Z,96762.47
2023-04-03T03:45:35.327Z,96765.88
2023-04-03T03:46:37.655Z,96761.66
2023-04-03T03:47:42.450Z,96758.19
2023-04-03T03:48:44.667Z,96761.63
2023-04-03T03:49:49.294Z,96758.19
2023-04-03T03:50:51.502Z,96761.63
2023-04-03T03:51:56.384Z,96764.19
2023-04-03T03:52:58.454Z,96757.38
2023-04-03T03:54:03.097Z,96760.78
2023-04-03T03:55:09.147Z,96766.78
2023-04-03T03:56:13.877Z,96765.94
2023-04-03T03:57:16.803Z,96765.91
2023-04-03T03:58:21.444Z,96766.78
2023-04-03T03:59:23.550Z,96768.50
2023-04-03T04:00:28.205Z,96760.84
2023-04-03T04:01:31.092Z,96771.03
2023-04-03T04:02:35.813Z,96761.69
2023-04-03T04:03:38.425Z,96764.22
2023-04-03T04:04:43.156Z,96764.22
2023-04-03T04:05:45.834Z,96768.53
2023-04-03T04:06:50.586Z,96764.25
2023-04-03T04:07:52.615Z,96767.66
2023-04-03T04:08:57.251Z,96765.06
2023-04-03T04:09:59.387Z,96762.56
2023-04-03T04:11:06.623Z,96767.66
2023-04-03T04:12:08.773Z,96767.66
2023-04-03T04:13:13.437Z,96763.41
2023-04-03T04:14:15.561Z,96760.84
2023-04-03T04:15:20.187Z,96757.44
2023-04-03T04:16:22.281Z,96760.84
2023-04-03T04:17:27.005Z,96766.81
2023-04-03T04:18:29.071Z,96769.38
2023-04-03T04:19:34.381Z,96763.41
2023-04-03T04:20:36.468Z,96763.41
2023-04-03T04:21:41.185Z,96765.13
2023-04-03T04:22:43.269Z,96762.53
2023-04-03T04:23:47.898Z,96766.78
2023-04-03T04:24:49.980Z,96765.09
2023-04-03T04:25:54.690Z,96755.72
2023-04-03T04:26:59.693Z,96756.59
2023-04-03T04:28:04.322Z,96760.03
2023-04-03T04:29:06.421Z,96763.47
2023-04-03T04:30:12.224Z,96760.03
2023-04-03T04:31:14.388Z,96763.47
2023-04-03T04:32:19.091Z,96764.34
2023-04-03T04:33:21.392Z,96761.78
2023-04-03T04:34:26.091Z,96769.47
2023-04-03T04:35:28.207Z,96759.22
2023-04-03T04:36:33.007Z,96764.34
2023-04-03T04:37:35.403Z,96761.78
2023-04-03T04:38:40.084Z,96755.88
2023-04-03T04:39:42.168Z,96766.09
2023-04-03T04:40:46.827Z,96766.13
2023-04-03T04:41:48.944Z,96766.16
2023-04-03T04:42:56.358Z,96770.44
2023-04-03T04:43:58.875Z,96771.28
2023-04-03T04:45:03.606Z,96771.31
2023-04-03T04:46:07.598Z,96767.91
2023-04-03T04:47:12.298Z,96777.28
2023-04-03T04:48:14.376Z,96773.91
2023-04-03T04:49:19.119Z,96766.25
2023-04-03T04:50:21.367Z,96777.31
2023-04-03T04:51:26.045Z,96774.78
2023-04-03T04:52:28.215Z,96782.41
2023-04-03T04:53:32.869Z,96778.19
2023-04-03T04:54:35.014Z,96787.53
2023-04-03T04:55:39.661Z,96777.31
2023-04-03T04:56:41.756Z,96781.56
2023-04-03T04:57:46.420Z,96786.66
2023-04-03T04:58:51.243Z,96781.59
2023-04-03T04:59:55.878Z,96782.41
2023-04-03T05:01:01.813Z,96785.81
2023-04-03T05:02:06.717Z,96779.00
2023-04-03T05:03:08.845Z,96773.06
2023-04-03T05:04:14.027Z,96781.56
2023-04-03T05:05:19.066Z,96784.94
2023-04-03T05:06:21.157Z,96782.38
2023-04-03T05:07:26.491Z,96784.94
2023-04-03T05:08:28.908Z,96786.66
2023-04-03T05:09:33.615Z,96783.25
2023-04-03T05:10:36.016Z,96785.81
2023-04-03T05:11:40.766Z,96790.91
2023-04-03T05:12:45.424Z,96784.97
2023-04-03T05:13:47.544Z,96784.97
2023-04-03T05:14:54.826Z,96784.13
2023-04-03T05:15:56.927Z,96789.22
2023-04-03T05:17:01.590Z,96795.16
2023-04-03T05:18:03.863Z,96795.16
2023-04-03T05:19:08.709Z,96790.09
2023-04-03T05:20:14.830Z,96796.03
2023-04-03T05:21:16.918Z,96795.19
2023-04-03T05:22:21.699Z,96794.31
2023-04-03T05:23:26.334Z,96792.63
2023-04-03T05:24:28.337Z,96790.09
2023-04-03T05:25:33.146Z,96793.47
2023-04-03T05:26:35.272Z,96793.47
2023-04-03T05:27:40.125Z,96791.78
2023-04-03T05:28:42.194Z,96788.38
2023-04-03T05:29:46.975Z,96793.47
2023-04-03T05:31:00.563Z,96786.63
2023-04-03T05:32:02.683Z,96789.22
2023-04-03T05:33:07.656Z,96793.47
2023-04-03T05:34:09.830Z,96790.88
2023-04-03T05:35:14.752Z,96795.16
2023-04-03T05:36:16.972Z,96800.25
2023-04-03T05:37:22.198Z,96795.13
2023-04-03T05:38:24.471Z,96794.28
2023-04-03T05:39:29.566Z,96795.13
2023-04-03T05:40:31.654Z,96790.88
2023-04-03T05:41:36.367Z,96795.97
2023-04-03T05:42:38.646Z,96789.19
2023-04-03T05:43:43.740Z,96795.09
2023-04-03T05:44:48.015Z,96796.81
2023-04-03T05:45:52.743Z,96799.34
2023-04-03T05:47:00.030Z,96792.53
2023-04-03T05:48:02.424Z,96795.94
2023-04-03T05:49:07.490Z,96795.06
2023-04-03T05:50:10.531Z,96791.63
2023-04-03T05:51:19.086Z,96793.34
2023-04-03T05:52:27.320Z,96795.00
2023-04-03T05:53:35.386Z,96795.84
2023-04-03T05:54:40.029Z,96797.53
2023-04-03T05:55:42.461Z,96793.28
2023-04-03T05:56:47.343Z,96805.19
2023-04-03T05:57:49.467Z,96801.75
2023-04-03T05:58:54.154Z,96795.75
2023-04-03T05:59:56.655Z,96796.59
2023-04-03T06:01:01.724Z,96796.56
2023-04-03T06:02:06.472Z,96798.25
2023-04-03T06:03:11.745Z,96794.88
2023-04-03T06:04:17.451Z,96796.50
2023-04-03T06:05:20.022Z,96802.47
2023-04-03T06:06:24.729Z,96797.31
2023-04-03T06:07:29.486Z,96803.28
2023-04-03T06:08:34.222Z,96806.69
2023-04-03T06:09:38.952Z,96791.31
2023-04-03T06:10:43.721Z,96804.03
2023-04-03T06:11:48.640Z,96802.44
2023-04-03T06:12:53.344Z,96811.78
2023-04-03T06:13:55.454Z,96806.63
2023-04-03T06:15:00.143Z,96812.56
2023-04-03T06:16:05.543Z,96810.84
2023-04-03T06:17:10.399Z,96803.97
2023-04-03T06:18:15.509Z,96815.88
2023-04-03T06:19:20.163Z,96814.16
2023-04-03T06:20:24.842Z,96809.06
2023-04-03T06:21:27.676Z,96810.72
2023-04-03T06:22:33.176Z,96814.94
2023-04-03T06:23:35.335Z,96813.22
2023-04-03T06:24:40.247Z,96811.50
2023-04-03T06:25:45.044Z,96810.59
2023-04-03T06:26:47.455Z,96810.59
2023-04-03T06:27:52.359Z,96815.69
2023-04-03T06:28:54.498Z,96817.34
2023-04-03T06:29:59.138Z,96815.59
2023-04-03T06:31:01.445Z,96819.84
2023-04-03T06:32:06.144Z,96807.97
2023-04-03T06:33:13.453Z,96819.78
2023-04-03T06:34:16.977Z,96815.44
2023-04-03T06:35:22.187Z,96816.25
2023-04-03T06:36:24.340Z,96816.19
2023-04-03T06:37:30.058Z,96821.28
2023-04-03T06:38:32.207Z,96818.69
2023-04-03T06:39:37.056Z,96815.22
2023-04-03T06:40:39.682Z,96821.16
2023-04-03T06:41:44.659Z,96818.56
2023-04-03T06:42:47.110Z,96815.91
2023-04-03T06:43:52.097Z,96818.44
2023-04-03T06:44:56.790Z,96826.94
2023-04-03T06:45:58.939Z,96817.56
2023-04-03T06:47:03.770Z,96829.53
2023-04-03T06:48:08.988Z,96827.84
2023-04-03T06:49:16.669Z,96831.22
2023-04-03T06:50:21.567Z,96827.69
2023-04-03T06:51:25.395Z,96829.38
2023-04-03T06:52:30.284Z,96825.94
2023-04-03T06:53:35.125Z,96826.78
2023-04-03T06:54:37.289Z,96837.00
2023-04-03T06:55:42.408Z,96828.34
2023-04-03T06:56:47.061Z,96837.00
2023-04-03T06:57:51.973Z,96831.00
2023-04-03T06:58:55.739Z,96823.28
2023-04-03T07:00:01.111Z,96825.03
2023-04-03T07:01:03.240Z,96827.53
2023-04-03T07:02:08.385Z,96833.47
2023-04-03T07:03:14.174Z,96824.78
2023-04-03T07:04:21.766Z,96831.63
2023-04-03T07:05:27.214Z,96832.41
2023-04-03T07:06:33.014Z,96833.44
2023-04-03T07:07:35.428Z,96829.03
2023-04-03T07:08:40.086Z,96828.09
2023-04-03T07:09:45.101Z,96831.47
2023-04-03T07:10:50.015Z,96833.09
2023-04-03T07:11:54.694Z,96837.25
2023-04-03T07:12:59.366Z,96830.38
2023-04-03T07:14:04.096Z,96827.84
2023-04-03T07:15:10.455Z,96835.50
2023-04-03T07:16:15.201Z,96832.00
2023-04-03T07:17:17.602Z,96841.44
2023-04-03T07:18:22.616Z,96841.47
2023-04-03T07:19:30.667Z,96844.75
2023-04-03T07:20:35.454Z,96845.44
2023-04-03T07:21:40.210Z,96846.22
2023-04-03T07:22:42.343Z,96843.53
2023-04-03T07:24:51.839Z,96852.69
2023-04-03T07:25:54.556Z,96842.38
2023-04-03T07:26:59.262Z,96844.06
2023-04-03T07:28:03.939Z,96844.78
2023-04-03T07:29:08.736Z,96842.19
2023-04-03T07:30:12.251Z,96842.19
2023-04-03T07:31:18.671Z,96841.31
2023-04-03T07:32:23.401Z,96845.53
2023-04-03T07:33:28.105Z,96841.78
2023-04-03T07:34:35.759Z,96842.66
2023-04-03T07:35:38.119Z,96838.50
2023-04-03T07:36:43.138Z,96842.66
2023-04-03T07:37:47.852Z,96839.31
2023-04-03T07:38:52.866Z,96847.09
2023-04-03T07:39:56.315Z,96847.25
2023-04-03T07:41:01.423Z,96843.00
2023-04-03T07:42:06.464Z,96851.59
2023-04-03T07:43:08.653Z,96851.59
2023-04-03T07:44:13.571Z,96849.44
2023-04-03T07:45:16.101Z,96851.00
2023-04-03T07:46:21.939Z,96847.47
2023-04-03T07:47:27.407Z,96840.66
2023-04-03T07:48:29.467Z,96853.06
2023-04-03T07:49:39.259Z,96852.78
2023-04-03T07:50:41.898Z,96856.91
2023-04-03T07:51:46.632Z,96847.00
2023-04-03T07:52:52.026Z,96843.53
2023-04-03T07:53:56.661Z,96854.88
2023-04-03T07:55:01.283Z,96855.59
2023-04-03T07:56:03.970Z,96857.34
2023-04-03T07:57:09.062Z,96850.34
2023-04-03T07:58:11.929Z,96855.28
2023-04-03T07:59:16.627Z,96854.47
2023-04-03T08:00:20.855Z,96843.25
2023-04-03T08:01:25.533Z,96849.97
2023-04-03T08:02:30.217Z,96850.03
2023-04-03T08:03:35.211Z,96848.16
2023-04-03T08:04:42.699Z,96853.03
2023-04-03T08:05:47.085Z,96856.09
2023-04-03T08:06:52.141Z,96850.75
2023-04-03T08:07:56.902Z,96854.75
2023-04-03T08:09:02.917Z,96858.03
2023-04-03T08:10:05.863Z,96855.09
2023-04-03T08:11:12.532Z,96848.03
2023-04-03T08:12:17.258Z,96848.47
2023-04-03T08:13:22.756Z,96849.22
2023-04-03T08:14:27.499Z,96842.94
2023-04-03T08:15:33.852Z,96842.88
2023-04-03T08:16:38.561Z,96850.91
2023-04-03T08:17:43.311Z,96845.13
2023-04-03T08:18:48.433Z,96846.56
2023-04-03T08:19:55.748Z,96850.63
2023-04-03T08:21:00.679Z,96848.88
2023-04-03T08:22:06.203Z,96851.50
2023-04-03T08:23:08.393Z,96846.28
2023-04-03T08:24:13.161Z,96847.53
2023-04-03T08:25:15.816Z,96841.06
2023-04-03T08:26:22.448Z,96841.72
2023-04-03T08:27:28.337Z,96846.88
2023-04-03T08:28:33.091Z,96843.03
2023-04-03T08:29:38.993Z,96842.97
2023-04-03T08:30:44.926Z,96847.03
2023-04-03T08:31:50.942Z,96849.28
2023-04-03T08:32:55.632Z,96842.97
2023-04-03T08:34:01.290Z,96846.31
2023-04-03T08:35:07.018Z,96849.72
2023-04-03T08:36:20.486Z,96839.38
2023-04-03T08:37:25.427Z,96846.78
2023-04-03T08:38:27.630Z,96846.03
2023-04-03T08:39:32.855Z,96849.19
2023-04-03T08:40:34.968Z,96842.94
2023-04-03T08:41:41.634Z,96850.31
2023-04-03T08:42:55.676Z,96844.78
2023-04-03T08:44:07.937Z,96848.63
2023-04-03T08:45:16.541Z,96852.28
2023-04-03T08:46:22.951Z,96841.66
2023-04-03T08:47:32.618Z,96853.63
2023-04-03T08:48:38.156Z,96855.97
2023-04-03T08:49:48.858Z,96852.59
2023-04-03T08:51:03.291Z,96854.84
2023-04-03T08:52:16.196Z,96859.22
2023-04-03T08:53:24.842Z,96856.13
2023-04-03T08:54:36.991Z,96857.44
2023-04-03T08:55:46.453Z,96851.09
2023-04-03T08:56:48.647Z,96861.41
2023-04-03T08:57:57.681Z,96861.75
2023-04-03T08:59:04.754Z,96859.03
2023-04-03T09:00:19.670Z,96862.03
2023-04-03T09:01:28.757Z,96862.84
2023-04-03T09:02:38.358Z,96864.75
2023-04-03T09:03:44.817Z,96864.56
2023-04-03T09:04:46.949Z,96866.59
2023-04-03T09:05:59.498Z,96866.19
2023-04-03T09:07:12.724Z,96862.34
2023-04-03T09:08:27.143Z,96863.78
2023-04-03T09:09:37.083Z,96869.63
2023-04-03T09:10:44.472Z,96858.84
2023-04-03T09:12:01.513Z,96861.19
2023-04-03T09:13:12.213Z,96856.56
2023-04-03T09:14:21.347Z,96871.16
2023-04-03T09:15:37.973Z,96858.28
2023-04-03T09:16:53.122Z,96868.94
2023-04-03T09:18:06.818Z,96859.34
2023-04-03T09:19:23.719Z,96880.16
2023-04-03T09:20:31.743Z,96869.72
2023-04-03T09:21:43.474Z,96866.94
2023-04-03T09:22:52.172Z,96869.66
2023-04-03T09:24:01.849Z,96867.41
2023-04-03T09:25:14.305Z,96861.09
2023-04-03T09:26:23.124Z,96863.34
2023-04-03T09:27:27.993Z,96865.81
2023-04-03T09:28:42.840Z,96865.69
2023-04-03T09:29:56.344Z,96865.09
2023-04-03T09:31:01.138Z,96869.78
2023-04-03T09:32:16.456Z,96853.72
2023-04-03T09:33:19.007Z,96857.63
2023-04-03T09:34:28.812Z,96852.88
2023-04-03T09:35:44.729Z,96856.88
2023-04-03T09:36:55.592Z,96847.88
2023-04-03T09:38:04.878Z,96851.53
2023-04-03T09:39:07.324Z,96851.25
2023-04-03T09:40:39.829Z,96857.78
2023-04-03T09:41:46.143Z,96855.47
2023-04-03T09:42:55.521Z,96860.38
2023-04-03T09:44:05.528Z,96865.44
2023-04-03T09:45:27.749Z,96861.22
2023-04-03T09:46:34.798Z,96858.09
2023-04-03T09:47:40.817Z,96855.94
2023-04-03T09:49:05.007Z,96841.25
2023-04-03T09:50:24.382Z,96838.03
2023-04-03T09:51:31.217Z,96844.47
2023-04-03T09:52:39.416Z,96838.94
2023-04-03T09:53:44.025Z,96841.59
2023-04-03T09:54:48.736Z,96840.72
2023-04-03T09:55:50.945Z,96851.31
2023-04-03T09:56:57.505Z,96841.56
2023-04-03T09:58:03.740Z,96836.59
2023-04-03T09:59:19.175Z,96840.16
2023-04-03T10:00:26.512Z,96844.97
2023-04-03T10:01:30.911Z,96848.84
2023-04-03T10:02:41.788Z,96847.19
2023-04-03T10:03:47.854Z,96846.03
2023-04-03T10:05:06.589Z,96851.53
2023-04-03T10:06:28.090Z,96848.53
2023-04-03T10:07:34.675Z,96851.34
2023-04-03T10:08:41.996Z,96854.44
2023-04-03T10:09:59.391Z,96860.69
2023-04-03T10:11:19.861Z,96856.78
2023-04-03T10:12:24.560Z,96850.88
2023-04-03T10:13:26.734Z,96850.03
2023-04-03T10:14:32.277Z,96842.38
2023-04-03T10:15:43.367Z,96841.78
2023-04-03T10:16:56.219Z,96834.56
2023-04-03T10:18:17.847Z,96837.22
2023-04-03T10:19:38.143Z,96838.59
2023-04-03T10:20:46.151Z,96828.06
2023-04-03T10:21:54.665Z,96829.84
2023-04-03T10:23:08.649Z,96833.13
2023-04-03T10:24:23.254Z,96825.81
2023-04-03T10:25:33.104Z,96830.66
2023-04-03T10:26:46.981Z,96826.03
2023-04-03T10:28:01.090Z,96826.25
2023-04-03T10:29:15.880Z,96818.19
2023-04-03T10:30:31.898Z,96818.28
2023-04-03T10:31:43.825Z,96818.88
2023-04-03T10:33:01.921Z,96816.03
2023-04-03T10:34:07.929Z,96829.94
2023-04-03T10:35:24.001Z,96835.28
2023-04-03T10:36:40.728Z,96816.50
2023-04-03T10:38:00.565Z,96813.75
2023-04-03T10:39:16.654Z,96828.34
2023-04-03T10:40:34.737Z,96829.06
2023-04-03T10:41:52.631Z,96825.66
2023-04-03T10:43:05.547Z,96831.59
2023-04-03T10:44:17.979Z,96832.44
2023-04-03T10:45:28.443Z,96825.91
2023-04-03T10:46:39.557Z,96822.63
2023-04-03T10:47:51.012Z,96827.22
2023-04-03T10:49:06.814Z,96833.81
2023-04-03T10:50:30.161Z,96832.63
2023-04-03T10:51:43.974Z,96836.31
2023-04-03T10:52:54.240Z,96826.69
2023-04-03T10:54:04.548Z,96837.16
2023-04-03T10:55:36.144Z,96835.81
2023-04-03T10:56:46.765Z,96819.81
2023-04-03T10:57:53.189Z,96830.28
2023-04-03T10:59:02.647Z,96828.22
2023-04-03T11:00:13.762Z,96827.69
2023-04-03T11:01:21.469Z,96814.53
2023-04-03T11:02:31.856Z,96807.22
2023-04-03T11:03:41.906Z,96806.47
2023-04-03T11:04:53.400Z,96809.94
2023-04-03T11:05:59.751Z,96828.28
2023-04-03T11:07:08.674Z,96830.66
2023-04-03T11:08:21.520Z,96827.44
2023-04-03T11:09:30.150Z,96826.97
2023-04-03T11:10:41.736Z,96825.91
2023-04-03T11:11:49.265Z,96828.13
2023-04-03T11:13:00.236Z,96831.50
2023-04-03T11:14:09.403Z,96832.50
2023-04-03T11:15:19.032Z,96826.00
2023-04-03T11:16:29.496Z,96836.72
2023-04-03T11:17:40.094Z,96843.47
2023-04-03T11:18:48.830Z,96846.84
2023-04-03T11:20:01.472Z,96833.56
2023-04-03T11:21:12.713Z,96835.91
2023-04-03T11:22:25.849Z,96840.00
2023-04-03T11:23:45.953Z,96838.25
2023-04-03T11:25:01.207Z,96844.97
2023-04-03T11:26:13.159Z,96831.34
2023-04-03T11:27:26.406Z,96833.50
2023-04-03T11:28:28.563Z,96826.09
2023-04-03T11:29:39.183Z,96831.94
2023-04-03T11:30:49.942Z,96834.81
2023-04-03T11:32:13.076Z,96823.03
2023-04-03T11:33:41.552Z,96819.91
2023-04-03T11:34:49.562Z,96829.06
2023-04-03T11:35:57.899Z,96822.28
2023-04-03T11:37:05.124Z,96829.38
2023-04-03T11:38:10.384Z,96815.53
2023-04-03T11:39:24.712Z,96811.25
2023-04-03T11:40:31.983Z,96818.69
2023-04-03T11:41:36.952Z,96806.94
2023-04-03T11:42:46.339Z,96808.38
2023-04-03T11:44:01.215Z,96805.31
2023-04-03T11:45:39.369Z,96790.09
2023-04-03T11:46:58.974Z,96782.94
2023-04-03T11:48:16.701Z,96775.78
2023-04-03T11:49:57.912Z,96774.75
2023-04-03T11:51:02.910Z,96778.72
2023-04-03T11:52:07.667Z,96761.66
2023-04-03T11:53:29.847Z,96762.34
2023-04-03T11:54:53.024Z,96756.72
2023-04-03T11:55:58.312Z,96756.03
2023-04-03T11:57:03.069Z,96769.59
2023-04-03T11:58:14.559Z,96769.75
2023-04-03T11:59:26.180Z,96767.06
2023-04-03T12:00:54.536Z,96768.50
2023-04-03T12:02:00.051Z,96770.81
2023-04-03T12:03:02.440Z,96765.06
2023-04-03T12:04:16.082Z,96772.09
2023-04-03T12:05:29.486Z,96764.03
2023-04-03T12:07:04.165Z,96770.06
2023-04-03T12:08:28.959Z,96748.44
2023-04-03T12:09:51.543Z,96745.66
2023-04-03T12:11:26.560Z,96754.25
2023-04-03T12:12:41.724Z,96754.16
2023-04-03T12:14:08.232Z,96742.81
2023-04-03T12:15:48.078Z,96747.50
2023-04-03T12:16:53.683Z,96758.09
2023-04-03T12:17:55.962Z,96757.69
2023-04-03T12:19:04.823Z,96770.28
2023-04-03T12:20:39.434Z,96764.72
2023-04-03T12:22:11.029Z,96768.94
2023-04-03T12:23:29.858Z,96766.44
2023-04-03T12:24:35.893Z,96775.84
2023-04-03T12:25:51.037Z,96775.84
2023-04-03T12:27:07.368Z,96774.41
2023-04-03T12:28:12.216Z,96778.63
2023-04-03T12:29:25.862Z,96774.13
2023-04-03T12:30:33.417Z,96778.00
2023-04-03T12:31:49.234Z,96766.00
2023-04-03T12:33:16.742Z,96763.69
2023-04-03T12:34:41.125Z,96761.44
2023-04-03T12:36:01.943Z,96759.25
2023-04-03T12:37:13.121Z,96750.56
2023-04-03T12:38:35.490Z,96751.06
2023-04-03T12:39:59.482Z,96747.00
2023-04-03T12:41:17.651Z,96747.16
2023-04-03T12:42:41.694Z,96751.66
2023-04-03T12:43:57.996Z,96742.81
2023-04-03T12:45:10.586Z,96754.75
2023-04-03T12:46:19.770Z,96746.44
2023-04-03T12:47:27.612Z,96749.31
2023-04-03T12:48:35.112Z,96763.50
2023-04-03T12:49:43.708Z,96763.47
2023-04-03T12:50:50.753Z,96771.97
2023-04-03T12:51:52.879Z,96776.06
2023-04-03T12:53:04.000Z,96771.34
2023-04-03T12:54:19.205Z,96771.91
2023-04-03T12:55:23.428Z,96768.91
2023-04-03T12:56:32.081Z,96770.03
2023-04-03T12:57:38.433Z,96774.69
2023-04-03T12:58:40.628Z,96777.91
2023-04-03T12:59:47.853Z,96764.75
2023-04-03T13:01:06.786Z,96770.63
2023-04-03T13:02:21.615Z,96772.16
2023-04-03T13:03:30.742Z,96762.47
2023-04-03T13:04:33.464Z,96768.72
2023-04-03T13:05:38.934Z,96761.47
2023-04-03T13:06:43.094Z,96756.16
2023-04-03T13:07:48.352Z,96754.06